createdAt,value
2022-10-30T00:01:54.314Z,10.63
2022-10-30T00:04:58.174Z,10.51
2022-10-30T00:08:01.944Z,10.23
2022-10-30T00:11:11.634Z,10.29
2022-10-30T00:14:16.582Z,10.51
2022-10-30T00:17:23.193Z,10.28
2022-10-30T00:20:26.689Z,10.34
2022-10-30T00:23:50.529Z,10.41
2022-10-30T00:26:55.457Z,10.51
2022-10-30T00:29:59.084Z,10.37
2022-10-30T00:33:02.554Z,10.40
2022-10-30T00:36:06.967Z,10.34
2022-10-30T00:39:11.539Z,10.28
2022-10-30T00:42:18.120Z,10.34
2022-10-30T00:45:21.871Z,10.48
2022-10-30T00:48:27.462Z,10.12
2022-10-30T00:51:33.485Z,10.17
2022-10-30T00:54:37.983Z,9.91
2022-10-30T00:57:45.035Z,9.89
2022-10-30T01:00:53.375Z,9.60
2022-10-30T01:03:59.411Z,9.37
2022-10-30T01:07:08.648Z,9.81
2022-10-30T01:10:13.519Z,9.72
2022-10-30T01:13:20.529Z,9.60
2022-10-30T01:16:45.446Z,9.77
2022-10-30T01:20:04.133Z,9.71
2022-10-30T01:23:21.971Z,9.59
2022-10-30T01:26:39.900Z,9.79
2022-10-30T01:29:55.864Z,9.92
2022-10-30T01:33:15.285Z,10.02
2022-10-30T01:36:27.130Z,9.80
2022-10-30T01:39:35.765Z,9.70
2022-10-30T01:42:46.319Z,9.87
2022-10-30T01:46:11.302Z,9.91
2022-10-30T01:49:34.476Z,10.09
2022-10-30T01:52:44.106Z,9.69
2022-10-30T01:55:58.012Z,10.00
2022-10-30T01:59:10.271Z,10.08
2022-10-30T02:02:18.150Z,9.93
2022-10-30T02:05:31.712Z,10.05
2022-10-30T02:08:35.151Z,10.05
2022-10-30T02:11:39.993Z,10.13
2022-10-30T02:14:48.784Z,10.27
2022-10-30T02:17:55.272Z,10.17
2022-10-30T02:21:00.416Z,10.10
2022-10-30T02:24:04.087Z,10.05
2022-10-30T02:27:07.527Z,9.81
2022-10-30T02:30:12.723Z,9.92
2022-10-30T02:36:28.989Z,9.59
2022-10-30T02:39:32.581Z,9.61
2022-10-30T02:42:36.634Z,9.38
2022-10-30T02:45:40.294Z,9.31
2022-10-30T02:48:44.724Z,9.40
2022-10-30T02:51:50.708Z,9.62
2022-10-30T02:54:54.540Z,9.80
2022-10-30T02:57:58.112Z,9.84
2022-10-30T03:01:07.000Z,9.95
2022-10-30T03:04:11.039Z,9.79
2022-10-30T03:07:16.296Z,9.63
2022-10-30T03:10:20.074Z,9.56
2022-10-30T03:13:23.848Z,9.65
2022-10-30T03:16:30.835Z,9.69
2022-10-30T03:19:35.640Z,9.63
2022-10-30T03:22:40.443Z,9.45
2022-10-30T03:25:44.450Z,9.32
2022-10-30T03:28:47.876Z,9.31
2022-10-30T03:31:51.578Z,9.30
2022-10-30T03:34:55.991Z,9.25
2022-10-30T03:38:01.562Z,9.28
2022-10-30T03:41:05.827Z,9.16
2022-10-30T03:44:09.460Z,9.25
2022-10-30T03:47:12.992Z,9.16
2022-10-30T03:50:35.520Z,9.14
2022-10-30T03:53:41.716Z,8.82
2022-10-30T03:56:46.084Z,8.93
2022-10-30T03:59:52.538Z,9.08
2022-10-30T04:03:16.310Z,8.94
2022-10-30T04:06:38.244Z,9.00
2022-10-30T04:09:46.915Z,9.04
2022-10-30T04:12:50.790Z,9.05
2022-10-30T04:15:57.873Z,9.30
2022-10-30T04:19:02.566Z,9.31
2022-10-30T04:22:06.470Z,9.19
2022-10-30T04:25:12.163Z,8.71
2022-10-30T04:28:16.636Z,8.77
2022-10-30T04:31:21.616Z,9.12
2022-10-30T04:34:25.824Z,9.21
2022-10-30T04:37:29.677Z,9.29
2022-10-30T04:40:38.476Z,8.98
2022-10-30T04:43:44.969Z,8.81
2022-10-30T04:46:49.559Z,8.76
2022-10-30T04:49:52.985Z,8.64
2022-10-30T04:53:01.243Z,8.74
2022-10-30T04:56:07.701Z,9.11
2022-10-30T04:59:11.844Z,9.05
2022-10-30T05:02:19.919Z,9.05
2022-10-30T05:05:24.207Z,9.04
2022-10-30T05:08:28.418Z,9.05
2022-10-30T05:11:34.219Z,8.98
2022-10-30T05:14:38.182Z,8.88
2022-10-30T05:17:42.283Z,8.44
2022-10-30T05:20:48.164Z,8.62
2022-10-30T05:23:52.305Z,8.63
2022-10-30T05:26:57.606Z,8.63
2022-10-30T05:30:04.328Z,8.35
2022-10-30T05:33:10.831Z,8.84
2022-10-30T05:36:16.309Z,8.98
2022-10-30T05:39:20.472Z,9.15
2022-10-30T05:42:29.260Z,8.86
2022-10-30T05:45:35.632Z,9.01
2022-10-30T05:48:41.044Z,9.04
2022-10-30T05:51:44.836Z,9.12
2022-10-30T05:54:49.038Z,9.35
2022-10-30T05:58:01.426Z,9.26
2022-10-30T06:01:08.348Z,9.46
2022-10-30T06:04:21.784Z,9.55
2022-10-30T06:07:25.636Z,9.63
2022-10-30T06:10:29.669Z,9.85
2022-10-30T06:13:50.614Z,10.06
2022-10-30T06:16:59.252Z,9.93
2022-10-30T06:20:10.776Z,10.14
2022-10-30T06:23:34.573Z,9.97
2022-10-30T06:26:46.333Z,9.89
2022-10-30T06:29:55.023Z,10.32
2022-10-30T06:33:00.006Z,10.56
2022-10-30T06:36:04.825Z,10.66
2022-10-30T06:39:08.576Z,10.73
2022-10-30T06:42:21.616Z,10.97
2022-10-30T06:45:44.310Z,10.88
2022-10-30T06:48:51.889Z,11.07
2022-10-30T06:51:56.192Z,10.90
2022-10-30T06:54:59.826Z,10.96
2022-10-30T06:58:21.874Z,11.20
2022-10-30T07:01:47.444Z,11.44
2022-10-30T07:05:14.013Z,11.55
2022-10-30T07:08:17.545Z,11.62
2022-10-30T07:11:21.617Z,11.78
2022-10-30T07:14:44.654Z,11.93
2022-10-30T07:18:07.711Z,12.11
2022-10-30T07:21:13.544Z,12.23
2022-10-30T07:24:18.368Z,12.33
2022-10-30T07:27:32.025Z,12.43
2022-10-30T07:31:10.143Z,12.73
2022-10-30T07:34:30.382Z,12.90
2022-10-30T07:37:46.139Z,13.10
2022-10-30T07:40:54.546Z,13.26
2022-10-30T07:44:30.648Z,13.36
2022-10-30T07:47:52.776Z,13.54
2022-10-30T07:51:08.954Z,13.71
2022-10-30T07:54:12.579Z,13.84
2022-10-30T07:57:16.268Z,14.04
2022-10-30T08:00:43.303Z,14.21
2022-10-30T08:03:58.067Z,14.31
2022-10-30T08:07:07.552Z,14.51
2022-10-30T08:10:11.438Z,14.63
2022-10-30T08:13:15.330Z,14.78
2022-10-30T08:16:19.823Z,14.91
2022-10-30T08:19:24.025Z,15.06
2022-10-30T08:22:31.575Z,15.12
2022-10-30T08:25:37.819Z,15.21
2022-10-30T08:28:41.717Z,15.29
2022-10-30T08:31:51.388Z,15.36
2022-10-30T08:35:00.836Z,15.39
2022-10-30T08:38:07.568Z,15.50
2022-10-30T08:41:11.839Z,15.62
2022-10-30T08:44:21.538Z,15.72
2022-10-30T08:48:03.363Z,15.82
2022-10-30T08:51:11.177Z,15.96
2022-10-30T08:54:22.025Z,16.13
2022-10-30T08:57:25.824Z,16.30
2022-10-30T09:00:32.400Z,16.45
2022-10-30T09:03:44.708Z,16.65
2022-10-30T09:07:23.945Z,16.80
2022-10-30T09:11:01.122Z,16.99
2022-10-30T09:14:05.515Z,17.11
2022-10-30T09:17:27.765Z,17.27
2022-10-30T09:20:32.680Z,17.33
2022-10-30T09:23:36.254Z,17.39
2022-10-30T09:27:18.916Z,17.42
2022-10-30T09:30:26.858Z,17.51
2022-10-30T09:33:32.831Z,17.53
2022-10-30T09:36:56.192Z,17.59
2022-10-30T09:40:00.542Z,17.63
2022-10-30T09:43:16.425Z,17.65
2022-10-30T09:46:30.686Z,17.74
2022-10-30T09:49:50.061Z,17.78
2022-10-30T09:53:08.336Z,17.86
2022-10-30T09:56:20.586Z,17.94
2022-10-30T09:59:40.341Z,17.99
2022-10-30T10:02:58.117Z,18.02
2022-10-30T10:06:16.925Z,18.12
2022-10-30T10:09:55.327Z,18.21
2022-10-30T10:13:28.750Z,18.22
2022-10-30T10:16:37.756Z,18.26
2022-10-30T10:19:49.478Z,18.26
2022-10-30T10:22:53.005Z,18.27
2022-10-30T10:26:01.870Z,18.28
2022-10-30T10:29:28.123Z,18.22
2022-10-30T10:33:01.652Z,18.22
2022-10-30T10:36:18.359Z,18.24
2022-10-30T10:39:35.964Z,18.27
2022-10-30T10:42:49.651Z,18.35
2022-10-30T10:46:09.039Z,18.42
2022-10-30T10:49:28.583Z,18.52
2022-10-30T10:52:40.095Z,18.70
2022-10-30T10:55:49.765Z,18.81
2022-10-30T10:58:58.267Z,18.91
2022-10-30T11:02:25.710Z,18.95
2022-10-30T11:05:36.338Z,19.08
2022-10-30T11:08:40.444Z,19.24
2022-10-30T11:11:45.117Z,19.29
2022-10-30T11:14:48.778Z,19.33
2022-10-30T11:18:03.356Z,19.32
2022-10-30T11:21:11.788Z,19.31
2022-10-30T11:24:28.634Z,19.25
2022-10-30T11:27:33.705Z,19.31
2022-10-30T11:30:37.406Z,19.29
2022-10-30T11:33:40.912Z,19.25
2022-10-30T11:36:47.173Z,19.20
2022-10-30T11:40:03.495Z,19.08
2022-10-30T11:43:08.217Z,19.11
2022-10-30T11:46:20.118Z,19.10
2022-10-30T11:49:38.924Z,19.05
2022-10-30T11:52:45.811Z,19.13
2022-10-30T11:55:51.183Z,19.14
2022-10-30T11:58:57.364Z,19.15
2022-10-30T12:02:04.014Z,19.18
2022-10-30T12:05:31.997Z,19.13
2022-10-30T12:08:37.226Z,19.23
2022-10-30T12:11:44.706Z,19.30
2022-10-30T12:14:48.434Z,19.34
2022-10-30T12:17:53.392Z,19.38
2022-10-30T12:20:58.918Z,19.49
2022-10-30T12:24:09.548Z,19.57
2022-10-30T12:27:21.407Z,19.67
2022-10-30T12:30:27.535Z,19.72
2022-10-30T12:33:37.478Z,19.77
2022-10-30T12:36:47.253Z,19.81
2022-10-30T12:40:05.194Z,19.88
2022-10-30T12:43:18.634Z,19.87
2022-10-30T12:46:34.506Z,19.91
2022-10-30T12:49:42.695Z,19.95
2022-10-30T12:52:52.443Z,19.98
2022-10-30T12:56:01.552Z,19.95
2022-10-30T12:59:35.536Z,19.92
2022-10-30T13:02:51.777Z,19.86
2022-10-30T13:05:58.698Z,19.94
2022-10-30T13:09:13.083Z,19.95
2022-10-30T13:12:22.558Z,19.99
2022-10-30T13:15:29.588Z,19.98
2022-10-30T13:18:33.851Z,19.97
2022-10-30T13:25:03.993Z,19.82
2022-10-30T13:28:22.470Z,19.80
2022-10-30T13:31:38.217Z,19.89
2022-10-30T13:34:52.614Z,19.93
2022-10-30T13:38:08.080Z,19.85
2022-10-30T13:41:21.457Z,19.88
2022-10-30T13:44:36.876Z,20.00
2022-10-30T13:47:53.740Z,20.01
2022-10-30T13:51:17.891Z,19.91
2022-10-30T13:54:26.014Z,19.87
2022-10-30T13:57:35.403Z,19.92
2022-10-30T14:00:57.541Z,19.86
2022-10-30T14:04:11.515Z,19.85
2022-10-30T14:07:28.168Z,19.79
2022-10-30T14:10:45.579Z,19.76
2022-10-30T14:13:56.218Z,19.73
2022-10-30T14:17:15.607Z,19.66
2022-10-30T14:20:28.127Z,19.63
2022-10-30T14:23:36.198Z,19.63
2022-10-30T14:26:52.570Z,19.64
2022-10-30T14:29:56.930Z,19.66
2022-10-30T14:33:03.446Z,19.59
2022-10-30T14:36:22.438Z,19.52
2022-10-30T14:39:30.123Z,19.54
2022-10-30T14:42:41.427Z,19.48
2022-10-30T14:45:50.437Z,19.48
2022-10-30T14:49:05.863Z,19.42
2022-10-30T14:52:20.494Z,19.39
2022-10-30T14:55:29.406Z,19.36
2022-10-30T14:58:35.153Z,19.34
2022-10-30T15:01:52.666Z,19.27
2022-10-30T15:05:19.163Z,19.21
2022-10-30T15:08:42.197Z,19.17
2022-10-30T15:12:08.531Z,19.11
2022-10-30T15:15:16.286Z,19.10
2022-10-30T15:18:23.053Z,19.05
2022-10-30T15:21:34.171Z,18.97
2022-10-30T15:24:43.430Z,18.95
2022-10-30T15:27:48.808Z,18.89
2022-10-30T15:31:03.339Z,18.77
2022-10-30T15:34:22.477Z,18.69
2022-10-30T15:37:27.884Z,18.67
2022-10-30T15:40:32.065Z,18.56
2022-10-30T15:43:41.644Z,18.53
2022-10-30T15:46:46.939Z,18.45
2022-10-30T15:49:54.630Z,18.35
2022-10-30T15:53:00.228Z,18.28
2022-10-30T15:56:04.739Z,18.18
2022-10-30T15:59:16.339Z,18.06
2022-10-30T16:02:22.969Z,17.67
2022-10-30T16:05:27.171Z,17.74
2022-10-30T16:08:32.260Z,17.65
2022-10-30T16:11:36.842Z,17.60
2022-10-30T16:14:41.238Z,17.53
2022-10-30T16:17:44.839Z,17.34
2022-10-30T16:20:52.045Z,17.28
2022-10-30T16:24:00.904Z,17.10
2022-10-30T16:27:06.107Z,17.08
2022-10-30T16:30:14.567Z,17.02
2022-10-30T16:33:28.445Z,16.95
2022-10-30T16:36:32.982Z,16.74
2022-10-30T16:39:39.051Z,16.59
2022-10-30T16:42:46.338Z,16.62
2022-10-30T16:45:50.954Z,16.40
2022-10-30T16:48:59.773Z,16.33
2022-10-30T16:52:06.236Z,16.22
2022-10-30T16:55:20.882Z,15.88
2022-10-30T16:58:27.748Z,15.94
2022-10-30T17:01:31.329Z,15.79
2022-10-30T17:04:36.998Z,15.75
2022-10-30T17:07:40.917Z,15.74
2022-10-30T17:11:00.418Z,15.71
2022-10-30T17:14:17.197Z,15.63
2022-10-30T17:17:30.062Z,15.58
2022-10-30T17:20:33.825Z,15.54
2022-10-30T17:23:40.776Z,15.19
2022-10-30T17:26:57.108Z,15.09
2022-10-30T17:30:00.948Z,15.15
2022-10-30T17:33:22.857Z,15.13
2022-10-30T17:36:26.712Z,15.08
2022-10-30T17:39:30.114Z,14.75
2022-10-30T17:42:35.234Z,14.95
2022-10-30T17:45:38.699Z,14.98
2022-10-30T17:48:43.445Z,14.78
2022-10-30T17:54:50.503Z,14.37
2022-10-30T17:57:55.835Z,14.32
2022-10-30T18:01:01.179Z,14.36
2022-10-30T18:04:20.917Z,14.38
2022-10-30T18:07:25.823Z,14.29
2022-10-30T18:10:30.015Z,14.27
2022-10-30T18:13:35.018Z,14.11
2022-10-30T18:16:38.498Z,14.21
2022-10-30T18:19:42.159Z,14.26
2022-10-30T18:22:45.765Z,14.32
2022-10-30T18:25:50.134Z,14.22
2022-10-30T18:28:55.446Z,14.27
2022-10-30T18:31:59.128Z,14.33
2022-10-30T18:35:02.659Z,14.14
2022-10-30T18:38:08.251Z,14.09
2022-10-30T18:41:16.529Z,13.97
2022-10-30T18:44:23.771Z,13.91
2022-10-30T18:47:27.187Z,13.98
2022-10-30T18:50:32.055Z,13.55
2022-10-30T18:53:57.052Z,13.45
2022-10-30T18:57:01.233Z,13.28
2022-10-30T19:00:07.091Z,13.15
2022-10-30T19:03:12.203Z,13.21
2022-10-30T19:06:17.967Z,13.21
2022-10-30T19:09:21.589Z,13.19
2022-10-30T19:12:25.427Z,13.03
2022-10-30T19:15:34.132Z,13.04
2022-10-30T19:18:37.550Z,13.31
2022-10-30T19:21:41.161Z,13.29
2022-10-30T19:24:44.885Z,13.39
2022-10-30T19:27:49.648Z,13.27
2022-10-30T19:30:54.953Z,13.28
2022-10-30T19:33:58.802Z,13.11
2022-10-30T19:37:02.171Z,13.06
2022-10-30T19:40:22.179Z,13.00
2022-10-30T19:43:25.778Z,12.88
2022-10-30T19:46:31.042Z,12.75
2022-10-30T19:49:34.513Z,12.80
2022-10-30T19:52:38.144Z,12.76
2022-10-30T19:55:43.368Z,12.53
2022-10-30T19:58:47.229Z,12.58
2022-10-30T20:01:52.204Z,12.84
2022-10-30T20:04:56.877Z,12.83
2022-10-30T20:08:05.483Z,12.64
2022-10-30T20:11:09.617Z,12.57
2022-10-30T20:14:13.047Z,12.75
2022-10-30T20:17:18.175Z,12.73
2022-10-30T20:20:24.039Z,12.86
2022-10-30T20:23:28.982Z,12.66
2022-10-30T20:26:32.981Z,12.63
2022-10-30T20:29:38.612Z,12.45
2022-10-30T20:32:43.463Z,12.45
2022-10-30T20:35:47.915Z,12.33
2022-10-30T20:38:51.368Z,12.40
2022-10-30T20:41:55.190Z,12.46
2022-10-30T20:44:58.634Z,12.26
2022-10-30T20:48:03.665Z,12.24
2022-10-30T20:51:07.496Z,12.41
2022-10-30T20:54:11.147Z,12.34
2022-10-30T20:57:14.589Z,12.46
2022-10-30T21:00:19.580Z,12.35
2022-10-30T21:03:24.521Z,12.25
2022-10-30T21:06:28.156Z,12.41
2022-10-30T21:09:31.436Z,12.27
2022-10-30T21:12:35.048Z,12.20
2022-10-30T21:15:39.455Z,11.98
2022-10-30T21:18:44.448Z,11.94
2022-10-30T21:21:47.895Z,11.97
2022-10-30T21:24:51.679Z,11.94
2022-10-30T21:27:57.377Z,11.92
2022-10-30T21:31:05.514Z,11.73
2022-10-30T21:34:10.313Z,11.60
2022-10-30T21:37:14.082Z,11.48
2022-10-30T21:40:17.877Z,11.68
2022-10-30T21:43:21.739Z,11.74
2022-10-30T21:46:26.711Z,11.89
2022-10-30T21:49:31.700Z,11.96
2022-10-30T21:52:35.352Z,11.95
2022-10-30T21:55:39.210Z,11.89
2022-10-30T21:58:43.395Z,11.86
2022-10-30T22:01:47.399Z,11.93
2022-10-30T22:04:52.559Z,11.77
2022-10-30T22:07:56.267Z,11.89
2022-10-30T22:11:03.719Z,11.83
2022-10-30T22:14:07.455Z,11.66
2022-10-30T22:17:10.778Z,11.74
2022-10-30T22:20:15.945Z,11.66
2022-10-30T22:23:19.276Z,11.71
2022-10-30T22:26:24.459Z,11.56
2022-10-30T22:29:27.862Z,11.51
2022-10-30T22:32:31.451Z,11.28
2022-10-30T22:35:38.663Z,11.20
2022-10-30T22:38:42.344Z,11.31
2022-10-30T22:41:45.766Z,11.00
2022-10-30T22:44:49.530Z,11.10
2022-10-30T22:47:52.885Z,11.02
2022-10-30T22:50:59.382Z,10.82
2022-10-30T22:54:05.895Z,11.00
2022-10-30T22:57:09.577Z,10.90
2022-10-30T23:00:18.229Z,10.91
2022-10-30T23:03:23.025Z,11.08
2022-10-30T23:06:29.168Z,10.89
2022-10-30T23:09:32.808Z,11.00
2022-10-30T23:12:36.209Z,11.21
2022-10-30T23:15:40.222Z,10.99
2022-10-30T23:18:44.284Z,11.01
2022-10-30T23:21:49.564Z,10.89
2022-10-30T23:24:53.042Z,11.06
2022-10-30T23:27:56.985Z,11.01
2022-10-30T23:31:00.463Z,10.88
2022-10-30T23:34:22.444Z,10.98
2022-10-30T23:37:27.128Z,11.07
2022-10-30T23:40:30.818Z,11.07
2022-10-30T23:43:34.155Z,11.08
2022-10-30T23:46:38.472Z,11.07
2022-10-30T23:49:41.874Z,11.09
2022-10-30T23:52:46.905Z,10.90
2022-10-30T23:55:51.988Z,10.96
2022-10-30T23:58:56.156Z,10.72
